Time;durP1;ratioP1;P1;durP2;ratioP2;P2;SDS_P1;SDS_P2;PMS_P1;PMS_P2;Temp;Humidity;BMP_temperature;BMP_pressure;BME280_temperature;BME280_humidity;BME280_pressure;Samples;Min_cycle;Max_cycle;Signal;HPM_P1;HPM_P2
2021/11/18 00:02:23;;;;;;;22.40;5.63;;;8.00;99.90;;;;;;4985379;28;20080;-85
2021/11/18 00:04:51;;;;;;;23.42;5.43;;;8.00;99.90;;;;;;5006470;28;20503;-85
2021/11/18 00:07:17;;;;;;;18.52;4.70;;;8.00;99.90;;;;;;5004928;28;20040;-86
2021/11/18 00:09:43;;;;;;;17.52;4.50;;;8.10;99.90;;;;;;4999383;28;20046;-86
2021/11/18 00:12:10;;;;;;;17.00;5.13;;;8.10;99.90;;;;;;5001269;28;20056;-85
2021/11/18 01:13:59;;;;;;;23.23;5.63;;;8.10;99.90;;;;;;5021859;28;20403;-86
2021/11/18 01:16:27;;;;;;;24.17;5.85;;;8.10;99.90;;;;;;5004986;28;20107;-87
2021/11/18 01:18:54;;;;;;;24.05;5.75;;;8.10;99.90;;;;;;5007314;28;20030;-85
2021/11/18 01:21:22;;;;;;;19.13;5.45;;;8.10;99.90;;;;;;5000249;28;20033;-85
2021/11/18 01:23:48;;;;;;;21.17;5.20;;;8.00;99.90;;;;;;4988702;28;20046;-87
2021/11/18 01:26:17;;;;;;;27.50;6.05;;;8.00;99.90;;;;;;4992273;28;20038;-86
2021/11/18 01:28:43;;;;;;;18.10;5.20;;;8.00;99.90;;;;;;5009550;28;20111;-85
2021/11/18 01:31:10;;;;;;;21.60;6.32;;;8.00;99.90;;;;;;4989905;28;20092;-86
2021/11/18 01:33:35;;;;;;;22.00;5.50;;;8.00;99.90;;;;;;5000842;28;20507;-85
2021/11/18 01:39:42;;;;;;;28.33;5.95;;;8.00;99.90;;;;;;5047953;28;20075;-86
2021/11/18 01:42:08;;;;;;;32.78;6.40;;;7.90;99.90;;;;;;5030702;28;20042;-87
2021/11/18 01:44:40;;;;;;;20.42;5.72;;;7.90;99.90;;;;;;5017822;28;20097;-86
2021/11/18 02:12:55;;;;;;;24.38;6.22;;;7.90;99.90;;;;;;5029728;28;20079;-86
2021/11/18 02:15:26;;;;;;;22.60;6.28;;;7.90;99.90;;;;;;5007777;28;20120;-85
2021/11/18 02:17:52;;;;;;;20.45;6.68;;;7.90;99.90;;;;;;4999464;28;20038;-85
2021/11/18 02:20:38;;;;;;;22.45;5.80;;;7.90;99.90;;;;;;5008626;28;20030;-85
2021/11/18 02:23:19;;;;;;;22.77;6.18;;;7.90;99.90;;;;;;4989273;28;20054;-85
2021/11/18 02:25:49;;;;;;;25.60;6.55;;;7.90;99.90;;;;;;5005831;28;20155;-85
2021/11/18 02:28:15;;;;;;;23.63;6.72;;;8.00;99.90;;;;;;4991042;28;20080;-86
2021/11/18 02:30:42;;;;;;;33.85;7.70;;;8.00;99.90;;;;;;4985651;28;20523;-85
2021/11/18 02:33:08;;;;;;;23.27;6.30;;;8.00;99.90;;;;;;4992900;28;20065;-86
2021/11/18 02:35:38;;;;;;;25.60;7.05;;;8.00;99.90;;;;;;5011964;28;20044;-85
2021/11/18 02:38:04;;;;;;;28.23;6.95;;;8.00;99.90;;;;;;5014867;28;20037;-86
2021/11/18 02:40:30;;;;;;;31.30;6.78;;;8.00;99.90;;;;;;4998447;28;20033;-85
2021/11/18 02:42:58;;;;;;;24.95;5.78;;;8.00;99.90;;;;;;4995330;28;20109;-85
2021/11/18 02:45:28;;;;;;;21.73;6.65;;;8.00;99.90;;;;;;4985624;28;20050;-85
2021/11/18 02:47:55;;;;;;;27.23;7.25;;;8.00;99.90;;;;;;4999374;28;20068;-86
2021/11/18 02:50:24;;;;;;;30.88;7.03;;;8.10;99.90;;;;;;5007028;28;20045;-85
2021/11/18 02:52:50;;;;;;;25.67;7.80;;;8.00;99.90;;;;;;4986252;28;20116;-86
2021/11/18 02:55:21;;;;;;;33.03;8.48;;;8.00;99.90;;;;;;5011152;28;20507;-86
2021/11/18 02:57:47;;;;;;;26.98;6.60;;;8.00;99.90;;;;;;4998164;28;20113;-85
2021/11/18 03:00:18;;;;;;;28.70;7.15;;;8.00;99.90;;;;;;5006869;28;20037;-85
2021/11/18 03:02:44;;;;;;;22.88;6.40;;;8.10;99.90;;;;;;5001717;28;20492;-87
2021/11/18 03:05:10;;;;;;;25.77;6.68;;;8.10;99.90;;;;;;5015547;28;20089;-86
2021/11/18 03:07:36;;;;;;;25.70;6.05;;;8.10;99.90;;;;;;5008302;28;20041;-86
2021/11/18 03:10:08;;;;;;;25.38;6.95;;;8.10;99.90;;;;;;5012172;28;20061;-86
2021/11/18 03:12:34;;;;;;;26.13;7.15;;;8.10;99.90;;;;;;5014421;28;20033;-85
2021/11/18 03:15:00;;;;;;;19.58;6.63;;;8.10;99.90;;;;;;5008907;28;20072;-85
2021/11/18 03:17:26;;;;;;;27.85;6.65;;;8.10;99.90;;;;;;5012440;28;20474;-86
2021/11/18 03:19:51;;;;;;;27.45;6.60;;;8.10;99.90;;;;;;5000307;28;20033;-85
2021/11/18 03:22:17;;;;;;;26.70;6.40;;;8.10;99.90;;;;;;5014185;28;20172;-85
2021/11/18 03:24:43;;;;;;;32.20;7.70;;;8.20;99.90;;;;;;5004697;28;20502;-85
2021/11/18 03:27:09;;;;;;;26.33;6.35;;;8.20;99.90;;;;;;5005858;28;20115;-85
2021/11/18 03:29:36;;;;;;;24.73;6.35;;;8.20;99.90;;;;;;5004565;28;20116;-86
2021/11/18 03:32:01;;;;;;;36.17;7.05;;;8.20;99.90;;;;;;4994596;28;20061;-86
2021/11/18 03:34:29;;;;;;;32.30;7.70;;;8.30;99.90;;;;;;5006116;28;20046;-85
2021/11/18 03:36:58;;;;;;;22.63;7.07;;;8.20;99.90;;;;;;4998886;28;20041;-86
2021/11/18 03:39:25;;;;;;;22.27;6.60;;;8.20;99.90;;;;;;4979911;28;20037;-85
2021/11/18 03:41:54;;;;;;;22.83;6.68;;;8.30;99.90;;;;;;4991256;28;20050;-86
2021/11/18 03:44:21;;;;;;;38.35;8.10;;;8.20;99.90;;;;;;5002598;28;20041;-86
2021/11/18 03:46:50;;;;;;;25.90;6.90;;;8.20;99.90;;;;;;5003240;28;20025;-87
2021/11/18 03:49:17;;;;;;;22.17;6.65;;;8.20;99.90;;;;;;5034564;28;20030;-87
2021/11/18 03:51:44;;;;;;;26.40;7.18;;;8.20;99.90;;;;;;5034848;28;20415;-87
2021/11/18 03:54:12;;;;;;;32.65;6.72;;;8.20;99.90;;;;;;5029617;28;20044;-85
2021/11/18 03:56:41;;;;;;;22.55;7.03;;;8.20;99.90;;;;;;5008821;28;20041;-86
2021/11/18 03:59:09;;;;;;;31.67;6.75;;;8.20;99.90;;;;;;5024291;28;20027;-86
2021/11/18 04:01:35;;;;;;;22.67;6.57;;;8.20;99.90;;;;;;5020512;28;20033;-85
2021/11/18 04:04:04;;;;;;;29.10;6.50;;;8.20;99.90;;;;;;5031535;28;20044;-85
2021/11/18 04:06:30;;;;;;;22.15;7.05;;;8.20;99.90;;;;;;5037719;28;20064;-86
2021/11/18 04:08:56;;;;;;;23.13;6.53;;;8.20;99.90;;;;;;5036626;28;20033;-87
2021/11/18 04:11:21;;;;;;;24.15;6.03;;;8.20;99.90;;;;;;5036910;28;20045;-85
2021/11/18 04:13:47;;;;;;;27.38;6.82;;;8.20;99.90;;;;;;4990675;28;20631;-85
2021/11/18 04:16:12;;;;;;;27.38;6.90;;;8.20;99.90;;;;;;4996051;28;20134;-85
2021/11/18 04:18:38;;;;;;;27.80;6.55;;;8.20;99.90;;;;;;4997242;28;20036;-85
2021/11/18 04:21:04;;;;;;;20.70;7.25;;;8.20;99.90;;;;;;4984711;28;20034;-86
2021/11/18 04:23:30;;;;;;;25.15;7.50;;;8.20;99.90;;;;;;5012379;28;20041;-85
2021/11/18 04:25:56;;;;;;;26.70;6.57;;;8.20;99.90;;;;;;4997382;28;20069;-85
2021/11/18 04:28:22;;;;;;;36.25;8.27;;;8.20;99.90;;;;;;5006261;28;20071;-85
2021/11/18 04:31:05;;;;;;;26.35;6.80;;;8.30;99.90;;;;;;5006817;28;20037;-85
2021/11/18 04:33:32;;;;;;;25.98;6.38;;;8.30;99.90;;;;;;5013071;28;20045;-86
2021/11/18 04:35:59;;;;;;;27.77;7.05;;;8.20;99.90;;;;;;5003082;28;20113;-85
2021/11/18 04:38:26;;;;;;;26.25;6.63;;;8.30;99.90;;;;;;4986592;28;20515;-85
2021/11/18 04:40:52;;;;;;;33.08;6.35;;;8.30;99.90;;;;;;4987335;28;20037;-85
2021/11/18 04:43:18;;;;;;;29.65;7.30;;;8.30;99.90;;;;;;4992000;28;20033;-85
2021/11/18 04:45:44;;;;;;;38.95;8.10;;;8.30;99.90;;;;;;4988819;28;20041;-85
2021/11/18 04:48:10;;;;;;;24.77;6.85;;;8.30;99.90;;;;;;5004969;28;20041;-85
2021/11/18 04:50:37;;;;;;;22.05;6.60;;;8.30;99.90;;;;;;4995927;28;20038;-85
2021/11/18 04:53:04;;;;;;;24.67;6.40;;;8.30;99.90;;;;;;4994154;28;20045;-85
2021/11/18 04:55:30;;;;;;;23.70;6.60;;;8.30;99.90;;;;;;5004622;28;20562;-85
2021/11/18 04:57:56;;;;;;;37.78;7.43;;;8.30;99.90;;;;;;5002861;28;20057;-85
2021/11/18 05:00:26;;;;;;;24.38;6.55;;;8.30;99.90;;;;;;4983126;28;20038;-85
2021/11/18 05:02:53;;;;;;;27.15;6.65;;;8.30;99.90;;;;;;5008249;28;20049;-85
2021/11/18 05:05:22;;;;;;;25.05;6.20;;;8.30;99.90;;;;;;4976724;28;20044;-85
2021/11/18 05:07:48;;;;;;;28.30;7.25;;;8.40;99.90;;;;;;4984251;28;20041;-85
2021/11/18 05:10:15;;;;;;;26.63;6.75;;;8.40;99.90;;;;;;4996211;28;20038;-86
2021/11/18 05:12:42;;;;;;;29.00;6.43;;;8.40;99.90;;;;;;5008624;28;20124;-86
2021/11/18 05:15:12;;;;;;;27.55;6.78;;;8.30;99.90;;;;;;4990031;28;20048;-86
2021/11/18 05:17:38;;;;;;;27.40;6.03;;;8.40;99.90;;;;;;4986632;28;20088;-85
2021/11/18 05:20:06;;;;;;;20.65;6.00;;;8.40;99.90;;;;;;4995137;28;20495;-86
2021/11/18 05:22:31;;;;;;;26.50;5.85;;;8.40;99.90;;;;;;5024018;28;20037;-85
2021/11/18 05:24:57;;;;;;;31.20;6.20;;;8.40;99.90;;;;;;5004266;28;20041;-85
2021/11/18 05:27:24;;;;;;;28.25;6.20;;;8.40;99.90;;;;;;5000238;28;20037;-85
2021/11/18 05:29:51;;;;;;;24.70;6.15;;;8.40;99.90;;;;;;5015176;28;20048;-86
2021/11/18 05:32:17;;;;;;;20.50;5.15;;;8.40;99.90;;;;;;4989710;28;20164;-85
2021/11/18 05:34:42;;;;;;;25.95;6.65;;;8.50;99.90;;;;;;4998695;28;20113;-85
2021/11/18 05:37:08;;;;;;;24.67;5.75;;;8.50;99.90;;;;;;5006653;28;20587;-86
2021/11/18 05:39:34;;;;;;;26.70;5.85;;;8.50;99.90;;;;;;5001429;28;20069;-85
2021/11/18 05:42:00;;;;;;;30.00;5.45;;;8.50;99.90;;;;;;5008522;28;20075;-85
2021/11/18 05:44:26;;;;;;;30.55;6.85;;;8.50;99.90;;;;;;4996451;28;20045;-85
2021/11/18 05:46:52;;;;;;;25.33;5.95;;;8.50;99.90;;;;;;5013986;28;20037;-86
2021/11/18 05:49:17;;;;;;;22.67;5.88;;;8.60;99.90;;;;;;5015572;28;20068;-85
2021/11/18 05:51:44;;;;;;;28.52;6.03;;;8.50;99.90;;;;;;4990464;28;20040;-86
2021/11/18 05:54:12;;;;;;;26.40;6.47;;;8.50;99.90;;;;;;5007106;28;20451;-85
2021/11/18 05:56:38;;;;;;;32.58;6.65;;;8.50;99.90;;;;;;5006918;28;20124;-85
2021/11/18 05:59:05;;;;;;;35.83;5.97;;;8.50;99.90;;;;;;5015170;28;20116;-85
2021/11/18 06:01:31;;;;;;;25.20;5.75;;;8.50;99.90;;;;;;4990140;28;20056;-86
2021/11/18 06:03:58;;;;;;;26.33;6.15;;;8.60;99.90;;;;;;5004058;28;20499;-87
2021/11/18 06:06:24;;;;;;;26.35;6.00;;;8.50;99.90;;;;;;4991500;28;20113;-85
2021/11/18 06:08:50;;;;;;;29.27;5.88;;;8.50;99.90;;;;;;5003861;28;20500;-85
2021/11/18 06:11:15;;;;;;;28.58;5.68;;;8.60;99.90;;;;;;5002142;28;20044;-87
2021/11/18 06:13:42;;;;;;;23.25;6.03;;;8.60;99.90;;;;;;4981914;28;20129;-88
2021/11/18 06:16:08;;;;;;;22.00;5.07;;;8.60;99.90;;;;;;5004990;28;20565;-88
2021/11/18 06:18:34;;;;;;;26.17;6.03;;;8.60;99.90;;;;;;4995265;28;20491;-87
2021/11/18 06:21:00;;;;;;;22.25;5.03;;;8.60;99.90;;;;;;4985987;28;20505;-87
2021/11/18 06:23:26;;;;;;;28.38;6.15;;;8.60;99.90;;;;;;4987581;28;20381;-89
2021/11/18 06:25:52;;;;;;;24.98;6.15;;;8.60;99.90;;;;;;4986207;28;20092;-88
2021/11/18 06:28:19;;;;;;;27.08;5.80;;;8.60;99.90;;;;;;4987762;28;20095;-87
2021/11/18 06:30:46;;;;;;;20.55;5.57;;;8.60;99.90;;;;;;5002044;28;20050;-87
2021/11/18 06:33:12;;;;;;;28.17;6.05;;;8.60;99.90;;;;;;4983219;28;20527;-88
2021/11/18 06:35:39;;;;;;;26.60;5.25;;;8.60;99.90;;;;;;5007833;28;20117;-87
2021/11/18 06:38:05;;;;;;;27.63;5.97;;;8.60;99.90;;;;;;5014380;28;20037;-87
2021/11/18 06:40:30;;;;;;;29.98;6.65;;;8.70;99.90;;;;;;4995311;28;20068;-87
2021/11/18 06:42:57;;;;;;;31.10;5.70;;;8.70;99.90;;;;;;4995271;28;20414;-88
2021/11/18 06:45:26;;;;;;;31.98;5.85;;;8.70;99.90;;;;;;4993255;28;20037;-87
2021/11/18 06:47:52;;;;;;;24.65;5.75;;;8.70;99.90;;;;;;4983551;28;20037;-88
2021/11/18 06:50:19;;;;;;;33.78;5.68;;;8.60;99.90;;;;;;4983815;28;20061;-87
2021/11/18 06:52:45;;;;;;;28.15;6.00;;;8.60;99.90;;;;;;5004816;28;20045;-89
2021/11/18 06:55:12;;;;;;;28.15;5.75;;;8.60;99.90;;;;;;4988464;28;20041;-86
2021/11/18 06:57:38;;;;;;;26.05;5.22;;;8.60;99.90;;;;;;5012274;28;20029;-84
2021/11/18 07:00:07;;;;;;;27.15;6.07;;;8.60;99.90;;;;;;5005025;28;20030;-85
2021/11/18 07:02:33;;;;;;;21.58;5.35;;;8.60;99.90;;;;;;5005060;28;20038;-85
2021/11/18 07:04:58;;;;;;;26.70;6.00;;;8.60;99.90;;;;;;5007505;28;20095;-85
2021/11/18 07:07:24;;;;;;;28.33;6.10;;;8.60;99.90;;;;;;5001847;28;20038;-84
2021/11/18 07:09:50;;;;;;;26.02;5.75;;;8.60;99.90;;;;;;5000705;28;20048;-85
2021/11/18 07:12:18;;;;;;;21.60;5.13;;;8.60;99.90;;;;;;5011405;28;20034;-85
2021/11/18 07:14:45;;;;;;;26.30;5.68;;;8.60;99.90;;;;;;5006462;28;20446;-84
2021/11/18 07:17:11;;;;;;;20.52;5.15;;;8.60;99.90;;;;;;5006483;28;20423;-84
2021/11/18 07:19:37;;;;;;;27.40;6.68;;;8.60;99.90;;;;;;5008586;28;20034;-84
2021/11/18 07:22:04;;;;;;;29.88;5.82;;;8.60;99.90;;;;;;5009971;28;20129;-84
2021/11/18 07:24:31;;;;;;;25.38;5.50;;;8.60;99.90;;;;;;4998138;28;20069;-84
2021/11/18 07:26:57;;;;;;;24.92;5.20;;;8.60;99.90;;;;;;4993226;28;20554;-84
2021/11/18 07:29:23;;;;;;;20.58;5.40;;;8.60;99.90;;;;;;5000580;28;20034;-84
2021/11/18 07:31:50;;;;;;;24.17;5.68;;;8.60;99.90;;;;;;4998697;28;20298;-85
2021/11/18 07:34:18;;;;;;;25.33;5.68;;;8.60;99.90;;;;;;4988216;28;20044;-85
2021/11/18 07:36:45;;;;;;;26.52;6.07;;;8.70;99.90;;;;;;5004873;28;20052;-84
2021/11/18 07:39:11;;;;;;;24.98;5.38;;;8.60;99.90;;;;;;5008612;28;20502;-85
2021/11/18 07:41:37;;;;;;;32.70;5.60;;;8.60;99.90;;;;;;5005815;28;20495;-83
2021/11/18 07:44:03;;;;;;;26.75;5.40;;;8.70;99.90;;;;;;4999153;28;20053;-87
2021/11/18 07:46:29;;;;;;;26.40;5.30;;;8.60;99.90;;;;;;4986051;28;20503;-87
2021/11/18 07:48:56;;;;;;;21.75;4.72;;;8.60;99.90;;;;;;4997658;28;20165;-87
2021/11/18 07:51:23;;;;;;;22.70;5.25;;;8.70;99.90;;;;;;5004683;28;20049;-86
2021/11/18 07:53:49;;;;;;;27.17;6.60;;;8.70;99.90;;;;;;4999881;28;20034;-86
2021/11/18 07:56:18;;;;;;;28.75;5.93;;;8.70;99.90;;;;;;4982742;28;20033;-88
2021/11/18 07:58:43;;;;;;;26.20;5.45;;;8.70;99.90;;;;;;4984939;28;20050;-88
2021/11/18 08:01:11;;;;;;;24.73;5.30;;;8.70;99.90;;;;;;4997908;28;20252;-84
2021/11/18 08:03:38;;;;;;;25.25;5.47;;;8.80;99.90;;;;;;5004113;28;20467;-87
2021/11/18 08:06:10;;;;;;;23.60;5.00;;;8.80;99.90;;;;;;4980528;28;20104;-84
2021/11/18 08:08:43;;;;;;;23.05;5.68;;;8.80;99.90;;;;;;5002151;28;20384;-89
2021/11/18 08:11:08;;;;;;;19.85;4.53;;;8.80;99.90;;;;;;4990848;28;20480;-89
2021/11/18 08:13:34;;;;;;;26.52;5.78;;;8.80;99.90;;;;;;4995412;28;20029;-88
2021/11/18 08:16:00;;;;;;;20.45;4.82;;;8.90;99.90;;;;;;5006078;28;20037;-91
2021/11/18 08:18:26;;;;;;;24.27;6.13;;;8.90;99.90;;;;;;4989259;28;20033;-90
2021/11/18 08:20:52;;;;;;;19.98;5.30;;;8.90;99.90;;;;;;5002240;28;20120;-90
2021/11/18 08:23:18;;;;;;;24.55;5.70;;;9.00;99.90;;;;;;4987367;28;20485;-90
2021/11/18 08:25:46;;;;;;;19.73;5.53;;;9.00;99.90;;;;;;5003266;28;20116;-91
2021/11/18 08:28:12;;;;;;;25.08;5.20;;;9.00;99.90;;;;;;4980235;28;20462;-89
2021/11/18 08:30:41;;;;;;;20.10;4.80;;;9.00;99.90;;;;;;5010775;28;20045;-87
2021/11/18 08:33:08;;;;;;;20.42;5.07;;;9.10;99.90;;;;;;5006740;28;20029;-87
2021/11/18 08:35:35;;;;;;;26.63;5.68;;;9.10;99.90;;;;;;5006971;28;20033;-88
2021/11/18 08:38:04;;;;;;;21.90;5.55;;;9.10;99.90;;;;;;5003514;28;20124;-88
2021/11/18 08:40:30;;;;;;;28.25;5.80;;;9.10;99.90;;;;;;4993520;28;20067;-87
2021/11/18 08:42:55;;;;;;;24.85;5.63;;;9.20;99.90;;;;;;4986402;28;20407;-88
2021/11/18 08:45:21;;;;;;;28.23;5.57;;;9.10;99.90;;;;;;4990594;28;20041;-85
2021/11/18 08:47:47;;;;;;;23.88;5.65;;;9.20;99.90;;;;;;4983531;28;20037;-84
2021/11/18 08:50:17;;;;;;;23.42;5.03;;;9.30;99.90;;;;;;5006592;28;20037;-84
2021/11/18 08:52:44;;;;;;;23.20;4.95;;;9.30;99.90;;;;;;5005334;28;20052;-84
2021/11/18 08:55:15;;;;;;;27.10;5.32;;;9.30;99.90;;;;;;4993000;28;20045;-83
2021/11/18 08:57:41;;;;;;;26.08;5.28;;;9.30;99.90;;;;;;5003835;28;20037;-84
2021/11/18 09:00:12;;;;;;;28.00;5.68;;;9.40;99.90;;;;;;4995431;28;20041;-88
2021/11/18 09:02:39;;;;;;;24.48;4.88;;;9.40;99.90;;;;;;4995872;28;20427;-89
2021/11/18 09:05:05;;;;;;;21.35;5.35;;;9.40;99.90;;;;;;5022997;28;20233;-83
2021/11/18 09:07:31;;;;;;;38.15;5.75;;;9.50;99.90;;;;;;5006481;28;20077;-83
2021/11/18 09:09:57;;;;;;;20.98;4.97;;;9.50;99.90;;;;;;4992564;28;20077;-82
2021/11/18 09:12:25;;;;;;;26.63;5.70;;;9.50;99.90;;;;;;5008663;28;20113;-83
2021/11/18 09:14:51;;;;;;;29.92;5.30;;;9.50;99.90;;;;;;4985100;28;20046;-83
2021/11/18 09:17:16;;;;;;;21.85;5.38;;;9.60;99.90;;;;;;4980219;28;20056;-84
2021/11/18 09:19:43;;;;;;;20.92;5.30;;;9.60;99.90;;;;;;4993993;28;20086;-84
2021/11/18 09:22:11;;;;;;;31.27;5.72;;;9.60;99.90;;;;;;4999453;28;20037;-84
2021/11/18 09:24:42;;;;;;;30.30;5.65;;;9.70;99.90;;;;;;4996776;28;20064;-85
2021/11/18 09:27:12;;;;;;;30.83;5.00;;;9.70;99.90;;;;;;4976257;28;20038;-84
2021/11/18 09:29:38;;;;;;;26.38;5.30;;;9.70;99.90;;;;;;4979915;28;20673;-84
2021/11/18 09:32:05;;;;;;;23.15;5.28;;;9.80;99.90;;;;;;4988717;28;20037;-84
2021/11/18 09:34:31;;;;;;;17.55;5.50;;;9.80;99.90;;;;;;4990219;28;20072;-84
2021/11/18 09:36:58;;;;;;;23.70;5.45;;;9.80;99.90;;;;;;4985193;28;20037;-84
2021/11/18 09:39:24;;;;;;;29.63;4.93;;;9.90;99.90;;;;;;5004762;28;20116;-84
2021/11/18 09:41:53;;;;;;;24.00;5.13;;;9.90;99.90;;;;;;4996961;28;20443;-84
2021/11/18 09:44:43;;;;;;;25.02;5.72;;;10.00;99.90;;;;;;5005565;28;20073;-84
2021/11/18 09:48:05;;;;;;;24.05;5.10;;;10.10;99.90;;;;;;5006377;28;20038;-85
2021/11/18 09:50:44;;;;;;;25.05;5.57;;;10.20;99.90;;;;;;4989138;28;20546;-85
2021/11/18 09:53:16;;;;;;;22.60;4.38;;;10.30;99.90;;;;;;5005068;28;20033;-85
2021/11/18 09:55:48;;;;;;;24.08;5.40;;;10.30;99.90;;;;;;5004393;28;20041;-86
2021/11/18 09:58:36;;;;;;;23.58;5.07;;;10.30;99.90;;;;;;4984526;28;20525;-86
2021/11/18 10:01:39;;;;;;;31.13;5.43;;;10.30;99.90;;;;;;5006638;28;20471;-86
2021/11/18 10:04:39;;;;;;;25.23;5.35;;;10.30;99.90;;;;;;4986965;28;20068;-85
2021/11/18 10:07:30;;;;;;;25.48;5.22;;;10.40;99.90;;;;;;4976058;28;20678;-90
2021/11/18 10:10:07;;;;;;;21.67;5.10;;;10.40;99.90;;;;;;5001336;28;20091;-84
2021/11/18 10:12:57;;;;;;;24.58;5.60;;;10.40;99.90;;;;;;5001474;28;20041;-86
2021/11/18 10:15:29;;;;;;;22.42;5.05;;;10.40;99.90;;;;;;4993382;28;20045;-89
2021/11/18 10:18:08;;;;;;;23.20;4.88;;;10.40;99.90;;;;;;4991275;28;20039;-87
2021/11/18 10:20:37;;;;;;;25.70;4.80;;;10.50;99.90;;;;;;4999188;28;20037;-87
2021/11/18 10:23:10;;;;;;;25.13;5.40;;;10.60;99.90;;;;;;4987266;28;20045;-90
2021/11/18 10:25:42;;;;;;;24.27;5.07;;;10.70;99.90;;;;;;4991977;28;20435;-90
2021/11/18 10:28:20;;;;;;;29.40;5.47;;;10.70;99.90;;;;;;5010808;28;20061;-89
2021/11/18 10:31:09;;;;;;;27.92;5.22;;;10.70;99.90;;;;;;5015894;28;20076;-86
2021/11/18 10:33:56;;;;;;;22.08;5.57;;;10.80;99.90;;;;;;4986824;28;20034;-88
2021/11/18 10:36:50;;;;;;;20.08;4.65;;;10.80;99.90;;;;;;5009665;28;20037;-90
2021/11/18 10:39:26;;;;;;;25.85;4.88;;;10.90;99.90;;;;;;5007094;28;20150;-89
2021/11/18 10:42:09;;;;;;;23.48;5.00;;;10.90;99.90;;;;;;4988774;28;20109;-91
2021/11/18 10:44:49;;;;;;;23.70;4.55;;;10.90;99.90;;;;;;4979709;28;20168;-89
2021/11/18 10:47:21;;;;;;;21.48;5.03;;;11.00;99.90;;;;;;4991046;28;20187;-89
2021/11/18 10:50:09;;;;;;;21.98;4.88;;;11.00;99.90;;;;;;5002645;28;20038;-89
2021/11/18 10:52:59;;;;;;;21.33;4.60;;;11.00;99.90;;;;;;4992009;28;20041;-89
2021/11/18 10:55:35;;;;;;;21.95;4.97;;;11.10;99.90;;;;;;4997179;28;20495;-89
2021/11/18 10:58:24;;;;;;;18.85;4.32;;;11.10;99.90;;;;;;4983200;28;20556;-86
2021/11/18 11:00:58;;;;;;;20.02;4.60;;;11.10;99.90;;;;;;4994842;28;20041;-85
2021/11/18 11:03:51;;;;;;;23.77;4.72;;;11.20;99.90;;;;;;4982731;28;20037;-83
2021/11/18 11:06:16;;;;;;;;;;;11.20;99.90;;;;;;4993016;28;20440;-86
2021/11/18 11:08:49;;;;;;;17.83;4.43;;;11.20;99.90;;;;;;4994881;28;20020;-85
2021/11/18 11:11:44;;;;;;;22.50;5.30;;;11.30;99.90;;;;;;4995103;28;20505;-86
2021/11/18 11:14:32;;;;;;;27.67;4.78;;;11.30;99.90;;;;;;4998020;28;20037;-86
2021/11/18 11:17:36;;;;;;;21.63;4.63;;;11.30;99.90;;;;;;4980006;28;20030;-85
2021/11/18 11:20:13;;;;;;;28.08;5.35;;;11.30;99.90;;;;;;4994927;28;20400;-85
2021/11/18 11:23:03;;;;;;;25.80;5.43;;;11.20;99.90;;;;;;4998959;28;20069;-85
2021/11/18 11:25:54;;;;;;;24.35;4.88;;;11.20;99.90;;;;;;4993363;28;20517;-85
2021/11/18 11:28:47;;;;;;;34.97;5.15;;;11.10;99.90;;;;;;5000074;28;20447;-85
2021/11/18 11:31:19;;;;;;;;;;;11.20;99.90;;;;;;4996933;28;20189;-86
2021/11/18 11:34:15;;;;;;;25.42;5.50;;;11.20;99.90;;;;;;5001979;28;19917;-85
2021/11/18 11:36:51;;;;;;;24.27;5.40;;;11.20;99.90;;;;;;4992908;28;20049;-85
2021/11/18 11:39:35;;;;;;;24.65;5.30;;;11.20;99.90;;;;;;4984489;28;20087;-85
2021/11/18 11:42:32;;;;;;;23.98;6.07;;;11.20;99.90;;;;;;5001366;28;20499;-85
2021/11/18 11:45:18;;;;;;;27.77;5.90;;;11.40;99.90;;;;;;4976348;28;20128;-86
2021/11/18 11:47:52;;;;;;;23.42;5.60;;;11.40;99.90;;;;;;4997584;28;20152;-85
2021/11/18 11:50:52;;;;;;;22.83;5.22;;;11.50;99.90;;;;;;5002277;28;20095;-86
2021/11/18 11:53:28;;;;;;;24.35;5.70;;;11.50;99.90;;;;;;4986037;28;20033;-85
2021/11/18 11:56:01;;;;;;;24.77;5.50;;;11.50;99.90;;;;;;4996523;28;20056;-85
2021/11/18 11:58:32;;;;;;;20.20;5.47;;;11.60;99.90;;;;;;5001933;28;20536;-85
2021/11/18 12:01:13;;;;;;;23.63;6.47;;;11.70;99.90;;;;;;4975888;28;20034;-84
2021/11/18 12:04:08;;;;;;;25.58;6.22;;;11.60;99.90;;;;;;4980198;28;20188;-87
2021/11/18 12:07:08;;;;;;;22.92;5.47;;;11.70;99.90;;;;;;4959129;28;20104;-91
2021/11/18 12:09:49;;;;;;;28.33;6.50;;;11.70;99.90;;;;;;4990476;28;20046;-91
2021/11/18 12:12:39;;;;;;;24.67;6.50;;;11.70;99.90;;;;;;4998094;28;20038;-90
2021/11/18 12:15:12;;;;;;;20.98;5.88;;;11.70;99.90;;;;;;4979800;28;20499;-89
2021/11/18 12:17:55;;;;;;;23.10;5.50;;;11.70;99.90;;;;;;4977373;28;20052;-88
2021/11/18 12:20:39;;;;;;;27.65;6.22;;;11.80;99.90;;;;;;4981631;28;20041;-89
2021/11/18 12:23:11;;;;;;;22.23;5.30;;;11.80;99.90;;;;;;4989540;28;20100;-89
2021/11/18 12:26:02;;;;;;;26.50;6.40;;;11.80;99.90;;;;;;4993672;28;20120;-87
2021/11/18 12:28:32;;;;;;;31.45;6.65;;;11.80;99.90;;;;;;4986886;28;20045;-86
2021/11/18 12:31:03;;;;;;;19.42;5.20;;;11.80;99.90;;;;;;4989769;28;20407;-86
2021/11/18 12:33:30;;;;;;;25.45;5.43;;;11.80;99.90;;;;;;5001904;28;20511;-86
2021/11/18 12:36:16;;;;;;;22.17;5.00;;;11.80;99.90;;;;;;4978563;28;20041;-86
2021/11/18 12:38:47;;;;;;;23.65;5.88;;;11.80;99.90;;;;;;4999106;28;20108;-92
2021/11/18 12:41:32;;;;;;;23.65;5.32;;;11.90;99.90;;;;;;4975202;28;20030;-86
2021/11/18 12:44:08;;;;;;;25.33;5.95;;;11.70;99.90;;;;;;4986420;28;20160;-85
2021/11/18 12:46:53;;;;;;;22.42;6.10;;;11.70;99.90;;;;;;4985191;28;20487;-89
2021/11/18 12:49:50;;;;;;;27.70;5.93;;;11.70;99.90;;;;;;5008586;28;20045;-88
2021/11/18 12:52:30;;;;;;;21.65;5.40;;;11.70;99.90;;;;;;4960777;28;20049;-90
2021/11/18 12:55:14;;;;;;;17.10;4.90;;;12.10;99.90;;;;;;4989996;28;20152;-89
2021/11/18 12:57:39;;;;;;;22.35;5.35;;;11.70;99.90;;;;;;4989297;28;20049;-88
2021/11/18 13:00:16;;;;;;;25.00;5.57;;;11.70;99.90;;;;;;4981629;28;20526;-89
2021/11/18 13:02:44;;;;;;;24.05;6.32;;;11.70;99.90;;;;;;4979968;28;20152;-90
2021/11/18 13:05:10;;;;;;;26.05;5.70;;;11.70;99.90;;;;;;4986139;28;20049;-89
2021/11/18 13:08:08;;;;;;;25.10;5.80;;;11.70;99.90;;;;;;4986357;28;20395;-89
2021/11/18 13:10:40;;;;;;;22.25;5.93;;;11.70;99.90;;;;;;4972093;28;20034;-89
2021/11/18 13:13:05;;;;;;;21.73;5.03;;;11.70;99.90;;;;;;4990585;28;20077;-88
2021/11/18 13:15:43;;;;;;;25.17;5.80;;;11.70;99.90;;;;;;4981875;28;20088;-88
2021/11/18 13:18:34;;;;;;;26.42;5.47;;;11.60;99.90;;;;;;4981648;28;20037;-87
2021/11/18 13:21:00;;;;;;;26.60;6.97;;;11.70;99.90;;;;;;4982562;28;20034;-84
2021/11/18 13:23:34;;;;;;;22.77;5.50;;;11.70;99.90;;;;;;5001995;28;20064;-83
2021/11/18 13:26:04;;;;;;;26.33;5.25;;;11.60;99.90;;;;;;5005405;28;20077;-85
2021/11/18 13:29:01;;;;;;;26.75;5.38;;;11.60;99.90;;;;;;4985254;28;20033;-84
2021/11/18 13:31:43;;;;;;;25.48;6.18;;;11.70;99.90;;;;;;5003025;28;20046;-84
2021/11/18 13:34:15;;;;;;;19.90;5.30;;;11.70;99.90;;;;;;4990311;28;20029;-84
2021/11/18 13:36:42;;;;;;;22.08;5.80;;;11.70;99.90;;;;;;5010571;28;20038;-84
2021/11/18 13:39:45;;;;;;;18.23;4.97;;;11.70;99.90;;;;;;5004786;28;20492;-83
2021/11/18 13:42:32;;;;;;;24.35;5.40;;;11.60;99.90;;;;;;5004718;28;20049;-84
2021/11/18 13:45:07;;;;;;;20.23;5.05;;;11.70;99.90;;;;;;4997105;28;20487;-84
2021/11/18 13:47:37;;;;;;;26.10;5.38;;;11.60;99.90;;;;;;5006768;28;20045;-84
2021/11/18 13:50:18;;;;;;;26.45;6.13;;;11.60;99.90;;;;;;5016504;28;20083;-84
2021/11/18 13:53:00;;;;;;;30.40;5.93;;;11.50;99.90;;;;;;5007029;28;20041;-84
2021/11/18 13:55:47;;;;;;;25.33;6.45;;;11.50;99.90;;;;;;4997822;28;20042;-85
2021/11/18 13:58:21;;;;;;;29.65;7.25;;;11.50;99.90;;;;;;5010050;28;20483;-83
2021/11/18 14:00:47;;;;;;;24.95;6.10;;;11.40;99.90;;;;;;5007050;28;20042;-84
2021/11/18 14:03:31;;;;;;;30.42;6.93;;;11.40;99.90;;;;;;5003706;28;20386;-83
2021/11/18 14:06:08;;;;;;;23.98;6.00;;;11.40;99.90;;;;;;5012066;28;20380;-83
2021/11/18 14:08:43;;;;;;;26.23;6.18;;;11.40;99.90;;;;;;5001163;28;20044;-83
2021/11/18 14:11:19;;;;;;;29.83;7.15;;;11.40;99.90;;;;;;5006255;28;20038;-84
2021/11/18 14:13:46;;;;;;;30.17;7.13;;;11.30;99.90;;;;;;4987320;28;20044;-84
2021/11/18 14:16:37;;;;;;;23.48;6.45;;;11.20;99.90;;;;;;5005954;28;20056;-83
2021/11/18 14:19:14;;;;;;;29.13;6.95;;;11.10;99.90;;;;;;5003500;28;20034;-83
2021/11/18 14:22:01;;;;;;;23.17;6.82;;;11.10;99.90;;;;;;5008971;28;20048;-83
2021/11/18 14:24:32;;;;;;;27.95;6.45;;;11.00;99.90;;;;;;5007332;28;20041;-85
2021/11/18 14:27:09;;;;;;;32.42;7.40;;;11.00;99.90;;;;;;5013603;28;20404;-83
2021/11/18 14:29:56;;;;;;;30.52;7.47;;;10.90;99.90;;;;;;4990998;28;20041;-84
2021/11/18 14:32:32;;;;;;;29.83;9.02;;;10.90;99.90;;;;;;5016839;28;20407;-83
2021/11/18 14:35:19;;;;;;;27.58;7.57;;;10.90;99.90;;;;;;5007906;28;20041;-84
2021/11/18 14:38:05;;;;;;;30.67;8.35;;;10.80;99.90;;;;;;5011999;28;20045;-83